Time;durP1;ratioP1;P1;durP2;ratioP2;P2;SDS_P1;SDS_P2;PMS_P1;PMS_P2;Temp;Humidity;BMP_temperature;BMP_pressure;BME280_temperature;BME280_humidity;BME280_pressure;Samples;Min_cycle;Max_cycle;Signal;HPM_P1;HPM_P2
2022/07/07 00:01:46;;;;;;;5.62;2.10;;;;;;;18.94;56.64;100616.25;1455531;88;21403;-89
2022/07/07 00:04:13;;;;;;;3.53;2.30;;;;;;;18.91;57.04;100630.05;1456592;88;21371;-88
2022/07/07 00:06:40;;;;;;;3.50;2.17;;;;;;;18.99;56.30;100634.44;1462883;88;21534;-88
2022/07/07 00:09:07;;;;;;;4.13;2.10;;;;;;;18.99;56.28;100626.39;1455771;88;21512;-89
2022/07/07 00:11:34;;;;;;;3.20;1.77;;;;;;;19.01;56.37;100628.86;1467219;87;22066;-89
2022/07/07 00:14:01;;;;;;;8.60;2.53;;;;;;;19.02;56.25;100622.46;1471575;87;21317;-89
2022/07/07 00:16:28;;;;;;;5.33;2.30;;;;;;;19.02;55.97;100622.46;1477633;87;21331;-89
2022/07/07 00:18:56;;;;;;;2.80;2.10;;;;;;;19.01;56.36;100626.19;1445950;88;21382;-88
2022/07/07 00:21:23;;;;;;;3.47;2.33;;;;;;;19.00;55.91;100622.67;1455872;87;21353;-89
2022/07/07 00:23:50;;;;;;;3.87;1.90;;;;;;;18.98;55.82;100621.22;1473663;87;21404;-90
2022/07/07 00:26:17;;;;;;;3.37;2.27;;;;;;;18.89;56.34;100630.75;1484316;87;21479;-90
2022/07/07 00:28:44;;;;;;;3.53;2.30;;;;;;;18.90;56.09;100623.05;1444067;88;21293;-89
2022/07/07 00:31:11;;;;;;;4.43;1.97;;;;;;;18.92;55.88;100620.97;1467133;87;21412;-89
2022/07/07 00:33:38;;;;;;;4.87;2.43;;;;;;;18.93;55.77;100619.97;1472895;87;21509;-87
2022/07/07 00:36:07;;;;;;;6.13;2.30;;;;;;;18.86;55.79;100612.38;1470848;87;22439;-87
2022/07/07 00:38:35;;;;;;;3.13;1.77;;;;;;;18.85;55.84;100610.73;1493464;87;21369;-87
2022/07/07 00:41:03;;;;;;;3.17;2.20;;;;;;;18.83;55.69;100611.95;1487283;87;21441;-87
2022/07/07 00:43:39;;;;;;;4.37;1.77;;;;;;;18.82;55.51;100615.16;1479913;87;22441;-88
2022/07/07 00:46:07;;;;;;;2.20;1.97;;;;;;;18.77;55.81;100612.23;1545955;88;21218;-87
2022/07/07 00:48:38;;;;;;;5.27;1.80;;;;;;;18.72;55.55;100615.45;1449328;89;21237;-87
2022/07/07 00:51:08;;;;;;;3.33;2.53;;;;;;;18.72;55.71;100616.80;1476067;87;22433;-85
2022/07/07 00:53:38;;;;;;;2.27;1.87;;;;;;;18.71;55.60;100621.85;1459080;88;21303;-86
2022/07/07 00:56:06;;;;;;;2.57;1.90;;;;;;;18.70;55.38;100618.02;1510168;88;21441;-88
2022/07/07 00:58:36;;;;;;;2.60;1.67;;;;;;;18.68;55.54;100618.75;1562899;87;21265;-87
2022/07/07 01:01:04;;;;;;;2.58;1.80;;;;;;;18.62;55.83;100616.84;1424148;91;21369;-88
2022/07/07 01:03:31;;;;;;;4.17;2.00;;;;;;;18.59;55.76;100622.09;1593177;86;21131;-88
2022/07/07 01:05:59;;;;;;;2.70;1.70;;;;;;;18.58;55.67;100610.20;1574466;86;21190;-87
2022/07/07 01:08:29;;;;;;;5.23;2.27;;;;;;;18.52;55.83;100612.33;1533400;87;22671;-87
2022/07/07 01:10:56;;;;;;;3.13;1.77;;;;;;;18.45;56.18;100605.08;1566409;87;21170;-87
2022/07/07 01:13:23;;;;;;;3.37;2.00;;;;;;;18.35;56.66;100611.27;1495042;89;21391;-86
2022/07/07 01:15:50;;;;;;;2.93;1.73;;;;;;;18.29;56.75;100620.60;1575711;86;21139;-86
2022/07/07 01:18:18;;;;;;;3.87;2.03;;;;;;;18.23;57.10;100618.19;1578791;86;21244;-86
2022/07/07 01:20:47;;;;;;;10.43;2.37;;;;;;;18.20;57.61;100617.23;1548911;87;21131;-86
2022/07/07 01:23:15;;;;;;;5.15;2.05;;;;;;;18.19;56.84;100614.25;1540498;87;21249;-86
2022/07/07 01:25:42;;;;;;;2.73;2.00;;;;;;;18.15;57.16;100615.63;1508680;85;22262;-86
2022/07/07 01:28:10;;;;;;;3.80;2.07;;;;;;;18.07;57.77;100611.74;1507039;86;21212;-86
2022/07/07 01:30:37;;;;;;;2.30;1.90;;;;;;;18.03;57.43;100606.77;1485788;86;21347;-87
2022/07/07 01:33:05;;;;;;;3.87;2.20;;;;;;;17.99;57.57;100604.17;1501464;86;21314;-86
2022/07/07 01:35:34;;;;;;;3.23;1.73;;;;;;;17.95;58.04;100609.61;1488227;86;21351;-86
2022/07/07 01:38:01;;;;;;;3.07;2.30;;;;;;;17.89;57.98;100606.33;1491359;86;22415;-87
2022/07/07 01:40:28;;;;;;;2.90;1.93;;;;;;;17.85;58.14;100605.06;1482554;86;21293;-87
2022/07/07 01:42:56;;;;;;;3.33;2.00;;;;;;;17.83;58.27;100612.45;1472844;87;21390;-87
2022/07/07 01:45:23;;;;;;;2.47;1.67;;;;;;;17.79;58.44;100605.83;1458221;88;21642;-88
2022/07/07 01:47:50;;;;;;;3.87;2.43;;;;;;;17.67;59.15;100602.80;1468466;87;22297;-88
2022/07/07 01:50:17;;;;;;;3.17;2.40;;;;;;;17.58;59.45;100601.27;1440460;88;22308;-88
2022/07/07 01:52:45;;;;;;;4.67;2.20;;;;;;;17.53;58.87;100601.00;1460810;88;22521;-88
2022/07/07 01:55:12;;;;;;;3.90;2.10;;;;;;;17.48;59.29;100596.71;1484369;87;22667;-88
2022/07/07 01:57:39;;;;;;;6.17;2.60;;;;;;;17.45;59.24;100596.58;1474346;87;22854;-87
2022/07/07 02:00:09;;;;;;;2.03;1.83;;;;;;;17.41;59.47;100603.33;1455396;89;21367;-88
2022/07/07 02:02:39;;;;;;;4.17;2.30;;;;;;;17.36;59.78;100597.71;1477569;87;21367;-87
2022/07/07 02:05:07;;;;;;;3.93;1.93;;;;;;;17.31;59.98;100601.45;1476653;87;21448;-87
2022/07/07 02:07:37;;;;;;;3.07;2.20;;;;;;;17.24;60.23;100597.88;1444655;89;21323;-87
2022/07/07 02:10:05;;;;;;;3.02;2.20;;;;;;;17.12;60.56;100598.35;1483526;87;22446;-88
2022/07/07 02:12:35;;;;;;;2.33;2.03;;;;;;;17.03;60.74;100598.14;1481844;87;21422;-88
2022/07/07 02:15:02;;;;;;;3.43;2.87;;;;;;;16.87;62.44;100593.80;1482223;87;21470;-88
2022/07/07 02:17:30;;;;;;;2.97;2.20;;;;;;;16.75;61.93;100589.08;1480578;86;22792;-88
2022/07/07 02:19:57;;;;;;;4.07;1.67;;;;;;;16.69;62.38;100596.81;1478971;86;21626;-89
2022/07/07 02:22:24;;;;;;;4.37;2.47;;;;;;;16.64;62.92;100585.83;1490995;86;22571;-89
2022/07/07 02:24:51;;;;;;;6.57;2.20;;;;;;;16.60;63.06;100581.88;1469189;87;21397;-88
2022/07/07 02:27:25;;;;;;;2.63;1.83;;;;;;;16.54;63.31;100586.59;1483978;87;21346;-86
2022/07/07 02:29:52;;;;;;;3.23;2.67;;;;;;;16.50;63.25;100586.64;1481642;86;21381;-86
2022/07/07 02:32:20;;;;;;;3.03;2.10;;;;;;;16.52;63.44;100593.16;1472150;85;21373;-87
2022/07/07 02:34:47;;;;;;;6.87;2.63;;;;;;;16.51;63.48;100594.15;1487009;87;21323;-87
2022/07/07 02:37:14;;;;;;;4.87;2.40;;;;;;;16.50;64.61;100595.17;1483241;87;21351;-87
2022/07/07 02:39:41;;;;;;;8.20;2.17;;;;;;;16.49;63.72;100599.69;1488551;86;21411;-86
2022/07/07 02:42:08;;;;;;;3.40;2.30;;;;;;;16.46;63.88;100598.72;1494481;86;21336;-86
2022/07/07 02:44:35;;;;;;;2.70;2.00;;;;;;;16.47;63.52;100601.20;1483724;87;21449;-88
2022/07/07 02:47:03;;;;;;;2.53;1.70;;;;;;;16.47;63.79;100602.53;1492625;87;22489;-88
2022/07/07 02:49:30;;;;;;;6.17;2.33;;;;;;;16.46;64.05;100604.06;1487976;87;21323;-88
2022/07/07 02:51:57;;;;;;;4.37;2.20;;;;;;;16.43;63.96;100604.43;1489448;87;21571;-88
2022/07/07 02:54:24;;;;;;;5.83;1.90;;;;;;;16.42;64.33;100603.58;1462510;86;21617;-88
2022/07/07 02:56:52;;;;;;;2.63;2.07;;;;;;;16.42;64.16;100601.41;1449875;86;21455;-87
2022/07/07 02:59:19;;;;;;;3.40;2.20;;;;;;;16.41;64.26;100601.10;1485617;86;21367;-87
2022/07/07 03:01:46;;;;;;;3.77;2.50;;;;;;;16.42;64.26;100597.41;1488119;86;22306;-87
2022/07/07 03:04:13;;;;;;;5.07;2.13;;;;;;;16.39;64.26;100602.60;1459831;87;21456;-87
2022/07/07 03:06:40;;;;;;;3.67;2.23;;;;;;;16.34;64.31;100602.34;1488900;86;21552;-87
2022/07/07 03:09:07;;;;;;;2.87;2.20;;;;;;;16.31;64.61;100600.52;1492314;86;22916;-88
2022/07/07 03:11:34;;;;;;;3.40;2.00;;;;;;;16.30;65.08;100602.36;1443488;87;21518;-87
2022/07/07 03:14:02;;;;;;;5.70;2.37;;;;;;;16.33;64.75;100600.66;1480888;86;21626;-86
2022/07/07 03:16:29;;;;;;;7.93;2.20;;;;;;;16.37;65.09;100605.98;1479836;86;22305;-85
2022/07/07 03:18:56;;;;;;;3.50;2.53;;;;;;;16.37;65.12;100610.47;1496073;86;21529;-86
2022/07/07 03:21:23;;;;;;;2.07;1.83;;;;;;;16.35;65.54;100609.84;1483498;86;21382;-87
2022/07/07 03:23:50;;;;;;;3.77;2.50;;;;;;;16.35;65.25;100616.01;1458083;87;21376;-86
2022/07/07 03:26:18;;;;;;;5.33;2.10;;;;;;;16.36;65.42;100612.83;1484602;86;21675;-86
2022/07/07 03:28:45;;;;;;;4.90;3.10;;;;;;;16.36;65.62;100611.49;1467910;87;21575;-86
2022/07/07 03:31:12;;;;;;;4.47;2.33;;;;;;;16.39;65.52;100617.80;1488689;86;21506;-86
2022/07/07 03:33:39;;;;;;;4.13;2.23;;;;;;;16.42;65.12;100617.44;1487882;86;21523;-86
2022/07/07 03:36:07;;;;;;;2.93;2.40;;;;;;;16.43;65.04;100620.45;1478539;86;22379;-87
2022/07/07 03:38:34;;;;;;;8.10;2.83;;;;;;;16.41;65.48;100619.80;1491441;86;22468;-86
2022/07/07 03:41:01;;;;;;;3.20;2.33;;;;;;;16.39;66.25;100621.81;1458855;86;21396;-86
2022/07/07 03:43:28;;;;;;;5.13;2.43;;;;;;;16.40;66.37;100622.12;1488523;87;21366;-86
2022/07/07 03:45:55;;;;;;;8.03;2.57;;;;;;;16.42;66.27;100616.11;1460621;88;21433;-86
2022/07/07 03:48:22;;;;;;;3.70;2.57;;;;;;;16.43;65.74;100623.13;1481306;87;21560;-86
2022/07/07 03:50:49;;;;;;;4.77;2.47;;;;;;;16.49;65.83;100620.23;1485399;86;21502;-86
2022/07/07 03:53:16;;;;;;;3.13;1.97;;;;;;;16.50;65.84;100614.70;1464929;87;22388;-86
2022/07/07 03:55:43;;;;;;;3.13;2.30;;;;;;;16.53;66.24;100608.98;1493848;86;21418;-87
2022/07/07 03:58:10;;;;;;;8.83;2.30;;;;;;;16.58;66.10;100607.95;1445346;86;21353;-87
2022/07/07 04:00:39;;;;;;;2.87;1.70;;;;;;;16.64;65.97;100611.22;1495866;86;22490;-87
2022/07/07 04:03:08;;;;;;;8.37;2.37;;;;;;;16.68;65.60;100609.83;1484343;87;22533;-87
2022/07/07 04:05:36;;;;;;;6.47;2.40;;;;;;;16.76;65.79;100613.44;1485800;86;21441;-87
2022/07/07 04:08:03;;;;;;;3.40;2.03;;;;;;;16.80;65.39;100613.41;1463083;87;21308;-87
2022/07/07 04:10:30;;;;;;;4.90;2.07;;;;;;;16.85;65.50;100608.36;1492661;87;22241;-86
2022/07/07 04:12:58;;;;;;;9.00;2.80;;;;;;;16.83;65.30;100608.55;1478664;86;21356;-86
2022/07/07 04:15:25;;;;;;;17.20;4.70;;;;;;;16.88;65.10;100606.65;1464613;87;21374;-87
2022/07/07 04:17:52;;;;;;;4.37;2.40;;;;;;;16.93;65.21;100608.27;1461147;87;22416;-87
2022/07/07 04:20:19;;;;;;;3.23;2.00;;;;;;;17.00;65.27;100605.16;1446353;89;21929;-86
2022/07/07 04:22:46;;;;;;;6.43;2.60;;;;;;;17.07;65.37;100599.41;1477173;87;21293;-86
2022/07/07 04:25:13;;;;;;;9.40;3.00;;;;;;;17.12;65.10;100599.69;1489810;86;21389;-88
2022/07/07 04:27:40;;;;;;;4.53;2.60;;;;;;;17.16;65.04;100600.14;1482698;87;21428;-88
2022/07/07 04:30:09;;;;;;;10.53;3.50;;;;;;;17.19;64.61;100598.94;1490140;87;21374;-87
2022/07/07 04:32:36;;;;;;;8.07;2.53;;;;;;;17.26;64.52;100597.16;1483341;86;21337;-88
2022/07/07 04:35:04;;;;;;;4.83;2.43;;;;;;;17.33;64.75;100596.23;1487504;87;21382;-88
2022/07/07 04:37:31;;;;;;;4.17;2.63;;;;;;;17.37;64.34;100606.87;1478004;86;21375;-88
2022/07/07 04:39:58;;;;;;;2.83;1.90;;;;;;;17.45;64.10;100601.92;1468622;88;21353;-88
2022/07/07 04:42:25;;;;;;;4.93;2.23;;;;;;;17.48;64.19;100601.55;1464736;87;21396;-88
2022/07/07 04:44:52;;;;;;;5.30;2.10;;;;;;;17.54;63.87;100599.97;1484837;86;21360;-87
2022/07/07 04:47:19;;;;;;;4.63;2.00;;;;;;;17.58;63.77;100603.42;1490256;87;21397;-87
2022/07/07 04:49:47;;;;;;;6.20;2.07;;;;;;;17.67;63.47;100604.65;1464593;87;21478;-87
2022/07/07 04:52:14;;;;;;;8.10;2.33;;;;;;;17.70;63.26;100610.97;1467581;87;21412;-87
2022/07/07 04:54:41;;;;;;;3.80;1.97;;;;;;;17.77;63.12;100607.83;1476362;87;22291;-88
2022/07/07 04:57:08;;;;;;;8.87;2.07;;;;;;;17.85;63.17;100610.42;1468506;87;21500;-86
2022/07/07 04:59:36;;;;;;;3.97;2.33;;;;;;;17.91;62.74;100607.49;1481976;86;21382;-87
2022/07/07 05:02:04;;;;;;;23.63;3.20;;;;;;;17.96;62.28;100613.11;1462436;87;21329;-87
2022/07/07 05:04:31;;;;;;;5.90;2.10;;;;;;;18.02;62.36;100609.14;1481027;87;21441;-87
2022/07/07 05:06:58;;;;;;;4.77;2.20;;;;;;;18.08;62.30;100612.08;1474602;87;22284;-87
2022/07/07 05:09:25;;;;;;;5.87;2.37;;;;;;;18.13;62.10;100621.20;1442844;89;21337;-87
2022/07/07 05:11:52;;;;;;;3.90;2.30;;;;;;;18.25;61.86;100618.83;1485599;87;21411;-87
2022/07/07 05:14:19;;;;;;;3.37;2.20;;;;;;;18.30;61.41;100622.25;1467906;88;21367;-88
2022/07/07 05:16:47;;;;;;;7.37;2.57;;;;;;;18.17;61.50;100621.64;1488264;86;21331;-87
2022/07/07 05:19:14;;;;;;;4.30;2.10;;;;;;;18.29;61.71;100622.77;1480039;87;21526;-88
2022/07/07 05:21:41;;;;;;;12.07;2.60;;;;;;;18.30;61.65;100623.59;1477330;87;22189;-90
2022/07/07 05:24:08;;;;;;;4.73;2.17;;;;;;;18.44;61.26;100622.19;1475781;87;21354;-92
2022/07/07 05:26:35;;;;;;;6.17;2.30;;;;;;;18.59;60.91;100631.47;1479332;87;21552;-93
2022/07/07 05:29:03;;;;;;;8.50;2.47;;;;;;;18.75;60.58;100627.67;1468385;87;21544;-92
2022/07/07 05:31:30;;;;;;;6.97;2.47;;;;;;;18.86;60.21;100628.47;1474983;87;21323;-92
2022/07/07 05:33:57;;;;;;;6.40;2.10;;;;;;;19.04;60.16;100629.81;1484087;87;21381;-92
2022/07/07 05:36:24;;;;;;;7.43;2.37;;;;;;;19.19;59.76;100626.50;1481312;87;21529;-91
2022/07/07 05:38:51;;;;;;;14.90;2.30;;;;;;;19.31;59.16;100626.76;1465474;87;21448;-93
2022/07/07 05:41:21;;;;;;;11.57;3.47;;;;;;;19.37;58.73;100622.75;1482105;86;22035;-93
2022/07/07 05:43:48;;;;;;;4.92;2.35;;;;;;;19.49;58.52;100631.57;1479583;87;21494;-92
2022/07/07 05:46:15;;;;;;;6.50;2.95;;;;;;;19.54;58.22;100627.25;1446043;88;21346;-91
2022/07/07 05:48:42;;;;;;;4.60;2.10;;;;;;;19.58;58.10;100629.02;1465970;88;21412;-91
2022/07/07 05:51:10;;;;;;;8.43;2.85;;;;;;;19.74;57.87;100628.69;1483834;87;22410;-89
2022/07/07 05:53:37;;;;;;;7.65;2.42;;;;;;;19.85;57.74;100629.92;1454481;87;21331;-86
2022/07/07 05:56:04;;;;;;;8.83;1.90;;;;;;;19.94;56.56;100637.28;1482044;87;22520;-87
2022/07/07 05:58:32;;;;;;;8.23;2.40;;;;;;;19.98;56.16;100630.48;1481948;86;21347;-87
2022/07/07 06:00:59;;;;;;;18.40;2.58;;;;;;;20.00;56.62;100628.43;1485689;87;22419;-87
2022/07/07 06:03:26;;;;;;;15.90;2.50;;;;;;;20.11;56.21;100629.17;1474706;87;21483;-88
2022/07/07 06:05:53;;;;;;;6.47;2.50;;;;;;;20.33;56.41;100633.81;1461717;87;21331;-87
2022/07/07 06:08:21;;;;;;;5.87;3.02;;;;;;;20.46;55.78;100628.97;1465264;87;21346;-87
2022/07/07 06:10:48;;;;;;;4.17;2.50;;;;;;;20.60;55.49;100637.86;1467669;88;21390;-88
2022/07/07 06:13:15;;;;;;;5.67;2.30;;;;;;;20.77;55.14;100632.88;1481554;87;21338;-88
2022/07/07 06:15:42;;;;;;;6.80;2.30;;;;;;;20.88;54.61;100634.92;1460706;88;21457;-87
2022/07/07 06:18:09;;;;;;;5.12;2.35;;;;;;;20.94;54.14;100638.12;1473428;87;21500;-85
2022/07/07 06:20:36;;;;;;;5.78;2.20;;;;;;;21.01;54.11;100631.39;1480698;87;21345;-88
2022/07/07 06:23:04;;;;;;;3.25;2.17;;;;;;;21.00;53.28;100633.23;1486268;87;21330;-87
2022/07/07 06:25:31;;;;;;;4.83;2.98;;;;;;;21.09;53.20;100631.99;1491572;86;21345;-87
2022/07/07 06:27:58;;;;;;;3.90;2.42;;;;;;;21.01;53.64;100628.18;1472718;87;21376;-86
2022/07/07 06:30:26;;;;;;;6.12;2.25;;;;;;;21.00;53.63;100624.34;1474153;87;21352;-87
2022/07/07 06:32:53;;;;;;;5.10;2.33;;;;;;;21.10;53.74;100624.22;1492936;87;22321;-87
2022/07/07 06:35:24;;;;;;;4.58;2.47;;;;;;;21.19;53.71;100622.11;1486929;87;21288;-87
2022/07/07 06:37:53;;;;;;;3.02;2.30;;;;;;;21.41;53.80;100617.30;1483378;87;21538;-88
2022/07/07 06:40:21;;;;;;;4.55;2.75;;;;;;;21.45;52.97;100615.82;1437160;89;22777;-86
2022/07/07 06:42:48;;;;;;;8.83;2.42;;;;;;;21.60;52.79;100620.39;1424907;89;21485;-87
2022/07/07 06:45:15;;;;;;;3.90;2.33;;;;;;;21.76;52.81;100615.56;1443819;87;21419;-87
2022/07/07 06:47:43;;;;;;;8.68;2.95;;;;;;;21.94;51.95;100621.03;1481154;86;21530;-87
2022/07/07 06:50:10;;;;;;;7.45;2.60;;;;;;;22.07;51.41;100610.16;1487530;86;21611;-87
2022/07/07 06:52:37;;;;;;;8.30;2.67;;;;;;;22.05;50.23;100612.24;1493456;86;22357;-87
2022/07/07 06:55:05;;;;;;;4.50;1.98;;;;;;;22.30;49.85;100607.44;1470392;86;21410;-87
2022/07/07 06:57:33;;;;;;;6.10;2.70;;;;;;;22.30;49.85;100607.44;1464122;88;21456;-86
2022/07/07 07:00:00;;;;;;;11.83;2.47;;;;;;;22.52;50.38;100612.70;1452051;89;22484;-86
2022/07/07 07:02:27;;;;;;;5.58;2.37;;;;;;;22.60;49.79;100614.83;1449965;89;21397;-88
2022/07/07 07:04:54;;;;;;;5.55;2.62;;;;;;;22.58;49.27;100610.17;1435645;89;21347;-87
2022/07/07 07:07:21;;;;;;;21.87;3.10;;;;;;;22.72;49.48;100609.81;1450500;88;22389;-87
2022/07/07 07:09:48;;;;;;;2.85;2.55;;;;;;;22.73;49.20;100606.62;1404429;90;21391;-87
2022/07/07 07:12:16;;;;;;;22.48;4.65;;;;;;;22.93;49.56;100606.37;1463213;89;21471;-88
2022/07/07 07:14:43;;;;;;;12.43;3.45;;;;;;;23.05;48.82;100603.81;1452850;89;22433;-87
2022/07/07 07:17:10;;;;;;;8.28;2.52;;;;;;;23.17;47.41;100611.44;1410048;90;21413;-88
2022/07/07 07:19:38;;;;;;;6.78;2.37;;;;;;;23.32;48.26;100612.40;1427338;90;21339;-87
2022/07/07 07:22:05;;;;;;;7.67;2.75;;;;;;;23.42;47.63;100602.71;1441858;89;21410;-87
2022/07/07 07:24:32;;;;;;;6.75;2.27;;;;;;;23.53;47.53;100607.84;1469204;88;22135;-87
2022/07/07 07:26:59;;;;;;;6.15;2.20;;;;;;;23.73;47.64;100610.30;1459998;87;21366;-86
2022/07/07 07:29:26;;;;;;;7.05;2.05;;;;;;;23.91;46.98;100605.38;1462395;88;21449;-86
2022/07/07 07:31:54;;;;;;;3.65;2.12;;;;;;;23.99;46.27;100602.85;1476832;87;23433;-88
2022/07/07 07:34:21;;;;;;;6.03;2.75;;;;;;;24.05;45.96;100600.56;1480316;87;21473;-87
2022/07/07 07:36:48;;;;;;;3.47;2.15;;;;;;;24.20;45.85;100600.97;1477311;87;23547;-87
2022/07/07 07:39:15;;;;;;;7.45;2.62;;;;;;;24.28;43.87;100599.78;1494076;87;21301;-86
2022/07/07 07:41:47;;;;;;;9.10;2.15;;;;;;;24.27;44.20;100600.31;1484617;87;21339;-87
2022/07/07 07:44:11;;;;;;;7.55;2.10;;;;;;;24.11;44.17;100596.96;1493268;87;21463;-86
2022/07/07 07:46:38;;;;;;;11.18;2.45;;;;;;;24.28;44.68;100599.27;1487762;87;21272;-85
2022/07/07 07:49:06;;;;;;;6.62;2.25;;;;;;;24.27;42.71;100597.61;1483397;87;22321;-88
2022/07/07 07:51:34;;;;;;;7.75;2.45;;;;;;;24.20;43.50;100598.27;1475947;87;21526;-88
2022/07/07 07:54:01;;;;;;;20.35;1.90;;;;;;;24.30;43.89;100595.78;1473559;86;21405;-88
2022/07/07 07:56:28;;;;;;;6.65;2.20;;;;;;;24.20;42.22;100592.85;1481312;87;21327;-88
2022/07/07 07:58:55;;;;;;;3.22;1.92;;;;;;;24.28;41.67;100595.22;1465719;87;21523;-89
2022/07/07 08:01:22;;;;;;;2.25;1.50;;;;;;;24.36;41.62;100598.08;1487123;86;21404;-87
2022/07/07 08:03:50;;;;;;;3.05;2.08;;;;;;;24.26;41.54;100597.86;1454272;88;21592;-90
2022/07/07 08:06:17;;;;;;;4.15;2.20;;;;;;;24.30;42.25;100592.27;1466781;87;21426;-88
2022/07/07 08:08:44;;;;;;;19.10;3.77;;;;;;;24.46;42.52;100590.78;1491672;86;21338;-88
2022/07/07 08:11:11;;;;;;;8.95;2.72;;;;;;;24.67;41.54;100586.64;1476269;87;21442;-87
2022/07/07 08:13:38;;;;;;;4.75;2.15;;;;;;;24.83;41.26;100589.14;1460452;86;22364;-88
2022/07/07 08:16:05;;;;;;;3.00;2.10;;;;;;;24.67;40.64;100583.94;1467666;88;21526;-88
2022/07/07 08:18:32;;;;;;;3.22;2.25;;;;;;;24.67;40.43;100590.17;1478877;87;21419;-89
2022/07/07 08:20:59;;;;;;;3.45;1.70;;;;;;;24.96;41.45;100584.30;1462547;88;22299;-88
2022/07/07 08:23:27;;;;;;;6.92;1.98;;;;;;;25.10;40.98;100586.21;1479912;87;21300;-89
2022/07/07 08:25:54;;;;;;;9.78;1.70;;;;;;;25.29;40.92;100578.77;1439063;88;21451;-88
2022/07/07 08:28:21;;;;;;;4.05;1.87;;;;;;;25.48;40.43;100586.16;1428666;89;21382;-89
2022/07/07 08:30:48;;;;;;;4.92;1.67;;;;;;;25.58;39.45;100585.01;1459028;88;21493;-89
2022/07/07 08:33:16;;;;;;;6.62;1.85;;;;;;;25.61;37.49;100585.87;1445998;89;21323;-88
2022/07/07 08:35:43;;;;;;;9.58;2.35;;;;;;;25.59;37.95;100588.00;1485484;87;22240;-88
2022/07/07 08:38:10;;;;;;;3.45;2.02;;;;;;;25.64;37.73;100581.86;1462581;87;21374;-88
2022/07/07 08:40:38;;;;;;;4.10;2.08;;;;;;;25.72;36.39;100586.04;1484319;87;21316;-89
2022/07/07 08:43:05;;;;;;;5.12;1.62;;;;;;;25.68;37.54;100582.19;1486125;87;22615;-89
2022/07/07 08:45:33;;;;;;;12.10;3.17;;;;;;;25.80;37.86;100587.00;1463034;86;21503;-89
2022/07/07 08:48:00;;;;;;;3.25;1.57;;;;;;;25.85;37.92;100581.17;1489511;87;21360;-89
2022/07/07 08:50:28;;;;;;;3.30;1.77;;;;;;;25.68;35.70;100582.19;1461795;88;23048;-89
2022/07/07 08:52:56;;;;;;;5.35;1.87;;;;;;;25.87;36.81;100582.30;1458777;86;21440;-88
2022/07/07 08:55:24;;;;;;;16.40;2.87;;;;;;;26.07;36.74;100583.16;1481276;86;21555;-89
2022/07/07 08:57:52;;;;;;;10.23;1.70;;;;;;;25.89;34.73;100582.84;1491686;87;21301;-89
2022/07/07 09:00:20;;;;;;;6.83;1.70;;;;;;;26.02;35.16;100579.83;1470234;87;22394;-89
2022/07/07 09:02:49;;;;;;;3.60;1.50;;;;;;;25.91;35.44;100577.19;1471217;87;21421;-89
2022/07/07 09:05:16;;;;;;;3.50;1.50;;;;;;;25.98;36.42;100578.69;1475841;87;22358;-89
2022/07/07 09:07:47;;;;;;;10.10;2.15;;;;;;;26.00;35.40;100580.59;1479750;87;21529;-88
2022/07/07 09:10:34;;;;;;;22.35;3.17;;;;;;;26.01;36.72;100569.20;1479423;87;21574;-89
2022/07/07 09:13:02;;;;;;;14.68;2.20;;;;;;;26.00;36.62;100570.29;1476990;87;21412;-88
2022/07/07 09:15:34;;;;;;;3.67;1.55;;;;;;;26.02;36.38;100565.45;1487029;86;22358;-89
2022/07/07 09:18:01;;;;;;;4.90;1.72;;;;;;;26.31;36.50;100562.10;1497479;86;21360;-88
2022/07/07 09:20:30;;;;;;;1.25;1.05;;;;;;;26.42;35.41;100568.51;1488933;86;23306;-88
2022/07/07 09:22:57;;;;;;;15.48;2.20;;;;;;;26.55;35.41;100567.62;1486077;86;21640;-88
2022/07/07 09:25:27;;;;;;;6.85;1.42;;;;;;;26.46;34.58;100574.52;1484803;86;21405;-87
2022/07/07 09:27:59;;;;;;;6.62;1.32;;;;;;;26.36;33.62;100573.58;1485474;86;21316;-88
2022/07/07 09:30:37;;;;;;;8.13;1.75;;;;;;;26.43;34.69;100579.63;1490022;86;21541;-88
2022/07/07 09:33:23;;;;;;;2.77;1.55;;;;;;;26.70;34.87;100575.69;1446898;87;22364;-89
2022/07/07 09:38:41;;;;;;;4.58;1.22;;;;;;;27.37;34.21;100565.14;1495244;86;21534;-88
2022/07/07 09:41:14;;;;;;;1.27;0.97;;;;;;;27.62;33.73;100565.91;1485690;86;21345;-88
2022/07/07 09:43:52;;;;;;;2.35;1.10;;;;;;;27.34;29.95;100567.83;1491151;86;21382;-88
2022/07/07 09:46:22;;;;;;;4.90;2.15;;;;;;;27.39;31.07;100569.77;1437734;90;21425;-89
2022/07/07 09:48:54;;;;;;;5.15;1.35;;;;;;;27.34;30.05;100558.31;1465786;88;22341;-88
2022/07/07 09:51:24;;;;;;;0.75;0.75;;;;;;;27.26;30.98;100560.13;1479373;86;22336;-88
2022/07/07 09:54:10;;;;;;;4.67;1.10;;;;;;;27.41;30.97;100553.48;1480271;87;21508;-89
2022/07/07 09:56:41;;;;;;;5.33;1.32;;;;;;;27.66;30.96;100548.03;1466945;87;21417;-90
2022/07/07 09:59:12;;;;;;;4.28;1.05;;;;;;;27.73;30.99;100554.60;1453008;87;21322;-89
2022/07/07 10:01:42;;;;;;;3.62;0.98;;;;;;;27.99;31.77;100554.30;1492189;86;21302;-88
2022/07/07 10:04:13;;;;;;;1.82;0.90;;;;;;;28.08;31.05;100550.86;1489301;86;21344;-88
2022/07/07 10:06:43;;;;;;;9.95;1.12;;;;;;;28.01;30.37;100550.80;1487533;87;22335;-85
2022/07/07 10:09:14;;;;;;;2.25;1.17;;;;;;;28.15;30.01;100543.82;1489159;87;21427;-88
2022/07/07 10:11:45;;;;;;;73.12;2.90;;;;;;;28.23;29.96;100543.34;1492662;87;21374;-87
2022/07/07 10:14:22;;;;;;;14.45;1.50;;;;;;;28.18;29.28;100548.74;1486618;86;21478;-88
2022/07/07 10:16:52;;;;;;;4.33;0.98;;;;;;;28.38;30.46;100543.16;1492306;86;21331;-87
2022/07/07 10:19:23;;;;;;;7.42;1.10;;;;;;;28.74;30.84;100538.22;1496342;86;21403;-87
2022/07/07 10:21:54;;;;;;;10.08;1.45;;;;;;;28.71;29.44;100546.07;1491991;86;21322;-87
2022/07/07 10:24:28;;;;;;;3.62;1.02;;;;;;;28.92;29.44;100534.73;1482975;86;21478;-87
2022/07/07 10:26:58;;;;;;;2.45;1.15;;;;;;;29.12;29.37;100533.47;1479071;86;21265;-86
2022/07/07 10:29:48;;;;;;;1.40;1.05;;;;;;;29.01;27.79;100530.41;1476008;86;21936;-87
2022/07/07 10:32:39;;;;;;;1.57;0.88;;;;;;;29.01;28.03;100534.49;1483756;86;21411;-87
2022/07/07 10:35:15;;;;;;;4.75;1.02;;;;;;;28.92;27.14;100536.10;1489671;86;21529;-86
2022/07/07 10:37:49;;;;;;;4.20;1.17;;;;;;;28.78;27.06;100531.14;1486733;87;21300;-89
2022/07/07 10:40:28;;;;;;;3.30;1.05;;;;;;;29.01;27.93;100535.30;1499881;86;22254;-88
2022/07/07 10:43:20;;;;;;;4.83;1.12;;;;;;;29.12;26.32;100529.93;1489789;86;21375;-88
2022/07/07 10:45:52;;;;;;;4.15;1.12;;;;;;;29.09;27.77;100528.56;1478634;86;21401;-88
2022/07/07 10:48:44;;;;;;;4.83;1.22;;;;;;;29.36;27.92;100520.16;1495475;86;21367;-89
2022/07/07 10:51:29;;;;;;;14.40;1.72;;;;;;;29.63;27.40;100525.37;1479258;86;21440;-91
2022/07/07 10:54:10;;;;;;;27.17;1.60;;;;;;;29.74;27.27;100518.58;1477697;86;21389;-88
2022/07/07 10:59:27;;;;;;;4.80;1.25;;;;;;;29.41;25.68;100517.99;1447403;89;21612;-88
2022/07/07 11:02:09;;;;;;;5.95;0.70;;;;;;;29.28;25.81;100507.05;1419176;89;21509;-88
2022/07/07 11:04:47;;;;;;;5.10;0.80;;;;;;;29.22;26.09;100500.77;1426526;90;22362;-89
2022/07/07 11:07:21;;;;;;;5.58;0.95;;;;;;;29.43;26.88;100506.25;1445652;90;21398;-89
2022/07/07 11:10:06;;;;;;;7.53;1.02;;;;;;;29.45;26.10;100500.80;1425661;90;21487;-89
2022/07/07 11:12:39;;;;;;;4.15;1.17;;;;;;;29.36;24.56;100497.53;1385933;94;22439;-89
2022/07/07 11:15:32;;;;;;;5.80;1.50;;;;;;;28.82;24.83;100496.01;1386106;92;21530;-88
2022/07/07 11:18:10;;;;;;;11.97;2.50;;;;;;;29.21;26.12;100493.70;1392964;92;22546;-88
2022/07/07 11:20:57;;;;;;;1.45;0.88;;;;;;;29.59;26.95;100487.45;1382788;92;21459;-90
2022/07/07 11:23:49;;;;;;;5.08;0.90;;;;;;;29.81;25.36;100491.86;1390889;92;21482;-87
2022/07/07 11:26:19;;;;;;;3.85;1.02;;;;;;;29.73;22.99;100493.22;1393290;92;21427;-89
2022/07/07 11:28:47;;;;;;;9.08;2.10;;;;;;;29.97;24.75;100484.45;1392543;93;21407;-90
2022/07/07 11:31:15;;;;;;;3.02;1.17;;;;;;;30.05;25.34;100481.98;1386045;94;22355;-90
2022/07/07 11:33:42;;;;;;;11.85;1.30;;;;;;;30.09;25.51;100481.69;1386395;92;22362;-90
2022/07/07 11:36:16;;;;;;;5.90;1.30;;;;;;;30.10;25.74;100483.34;1387717;92;22040;-90
2022/07/07 11:38:45;;;;;;;10.30;1.20;;;;;;;29.90;25.43;100475.20;1388197;94;22025;-90